Gisborne (NZGS)

Aerodrome — Elev 15
New Zealand
S038.39.47.999 E177.58.41.999
Loading chart...

Current Weather

NZGS 270500Z 36004KT 35KM BKN065 14/07 Q1004 RMK ALT VATSIM USE ONLY

Published 1 hours 41 minutes ago

Airport Activity

Loading chart...
Loading chart...

Positions

CallsignRadio Name / Freq / Voice Room / TypeFrequencyVoice RoomType
NZCH-B_CTR Bay Approach
119.500
nzch-b_ctr
119.500nzch-b_ctr
NZGS_TWR Gisborne Tower
127.300
nzgs_twr
127.300nzgs_twr
NZGS_ATIS Gisborne ATIS
126.400
nzgs_atis
126.400nzgs_atis

Charts